Terminal Aerodrome Forecast
Issued by NWS

Home | Current Version | Previous Version | Text Only | Print | Product List | Glossary On
Versions: 1 2 3 4 5 6 7 8 9 10 11 12 13 14 15 16 17
384
FTUS42 KMHX 061745
TAFISO
TAF
KISO 061745Z 0618/0718 33009KT P6SM VCSH SCT025 BKN050
     FM070300 VRB05KT P6SM BKN100
     FM070800 24005KT 5SM BR BKN250
     FM071300 29010KT P6SM SCT250
      AMD LTD TO CLD VIS AND WIND=

USA.gov is the U.S. government's official web portal to all federal, state and local government web resources and services.